createdAt,value
2023-02-11T00:00:58.616Z,63.72
2023-02-11T00:03:27.238Z,60.70
2023-02-11T00:06:00.762Z,68.55
2023-02-11T00:08:27.462Z,62.63
2023-02-11T00:10:56.149Z,63.00
2023-02-11T00:13:24.073Z,63.08
2023-02-11T00:15:51.198Z,64.90
2023-02-11T00:18:17.991Z,60.20
2023-02-11T00:20:44.507Z,64.85
2023-02-11T00:23:11.194Z,62.45
2023-02-11T00:25:45.244Z,63.20
2023-02-11T00:28:12.230Z,61.47
2023-02-11T00:30:39.039Z,63.78
2023-02-11T00:33:05.798Z,61.33
2023-02-11T00:35:32.490Z,63.00
2023-02-11T00:37:59.087Z,64.53
2023-02-11T00:40:25.709Z,61.88
2023-02-11T00:42:52.201Z,65.45
2023-02-11T00:45:20.935Z,65.03
2023-02-11T00:47:47.497Z,61.70
2023-02-11T00:50:14.045Z,66.35
2023-02-11T00:52:40.717Z,62.08
2023-02-11T00:55:08.044Z,63.95
2023-02-11T00:57:34.658Z,60.53
2023-02-11T01:00:01.237Z,64.15
2023-02-11T01:02:27.829Z,58.90
2023-02-11T01:04:54.436Z,65.13
2023-02-11T01:07:21.036Z,67.10
2023-02-11T01:09:47.559Z,63.20
2023-02-11T01:12:14.185Z,63.22
2023-02-11T01:14:40.941Z,67.07
2023-02-11T01:17:08.486Z,57.75
2023-02-11T01:19:36.937Z,61.15
2023-02-11T01:22:03.696Z,60.83
2023-02-11T01:24:30.245Z,65.68
2023-02-11T01:26:57.041Z,62.72
2023-02-11T01:29:23.600Z,66.63
2023-02-11T01:31:50.294Z,69.50
2023-02-11T01:34:16.822Z,63.40
2023-02-11T01:36:43.557Z,68.15
2023-02-11T01:39:10.582Z,76.40
2023-02-11T01:41:37.538Z,73.47
2023-02-11T01:44:28.559Z,72.25
2023-02-11T01:46:55.650Z,66.68
2023-02-11T01:49:27.840Z,67.07
2023-02-11T01:51:56.980Z,66.68
2023-02-11T01:54:48.461Z,74.57
2023-02-11T01:57:25.277Z,72.38
2023-02-11T01:59:57.967Z,75.38
2023-02-11T02:02:33.506Z,72.53
2023-02-11T02:05:31.015Z,75.03
2023-02-11T02:08:21.239Z,70.88
2023-02-11T02:10:53.825Z,72.60
2023-02-11T02:13:20.540Z,73.38
2023-02-11T02:16:00.668Z,76.20
2023-02-11T02:18:43.220Z,71.03
2023-02-11T02:21:28.036Z,74.38
2023-02-11T02:24:15.916Z,81.10
2023-02-11T02:27:00.706Z,78.72
2023-02-11T02:29:48.335Z,72.55
2023-02-11T02:32:33.405Z,71.95
2023-02-11T02:35:17.970Z,70.05
2023-02-11T02:38:01.570Z,69.03
2023-02-11T02:40:50.646Z,71.70
2023-02-11T02:43:18.533Z,68.55
2023-02-11T02:45:45.185Z,70.95
2023-02-11T02:48:29.420Z,73.60
2023-02-11T02:51:11.385Z,71.32
2023-02-11T02:54:08.876Z,71.05
2023-02-11T02:56:55.475Z,70.63
2023-02-11T02:59:49.309Z,70.38
2023-02-11T03:02:31.122Z,72.63
2023-02-11T03:05:21.849Z,70.53
2023-02-11T03:08:15.712Z,71.25
2023-02-11T03:10:46.524Z,67.18
2023-02-11T03:13:18.495Z,65.88
2023-02-11T03:15:50.408Z,71.82
2023-02-11T03:18:21.978Z,70.93
2023-02-11T03:20:53.399Z,72.15
2023-02-11T03:23:34.116Z,66.45
2023-02-11T03:26:14.071Z,64.30
2023-02-11T03:29:28.637Z,66.20
2023-02-11T03:32:16.642Z,65.07
2023-02-11T03:34:49.484Z,66.40
2023-02-11T03:37:32.656Z,68.57
2023-02-11T03:40:06.673Z,70.85
2023-02-11T03:42:42.522Z,67.97
2023-02-11T03:45:12.400Z,69.32
2023-02-11T03:47:43.575Z,68.15
2023-02-11T03:50:11.367Z,63.67
2023-02-11T03:52:38.412Z,63.13
2023-02-11T03:55:11.196Z,65.65
2023-02-11T03:57:38.190Z,65.13
2023-02-11T04:00:06.316Z,62.53
2023-02-11T04:02:36.370Z,62.17
2023-02-11T04:05:06.802Z,65.75
2023-02-11T04:07:34.082Z,65.18
2023-02-11T04:10:00.729Z,65.95
2023-02-11T04:12:27.259Z,61.75
2023-02-11T04:14:53.830Z,61.95
2023-02-11T04:17:20.366Z,58.88
2023-02-11T04:19:46.980Z,62.35
2023-02-11T04:22:13.687Z,63.67
2023-02-11T04:24:40.248Z,66.97
2023-02-11T04:27:06.776Z,62.92
2023-02-11T04:29:33.444Z,60.58
2023-02-11T04:32:00.013Z,61.88
2023-02-11T04:34:26.721Z,62.65
2023-02-11T04:36:53.368Z,64.80
2023-02-11T04:39:19.902Z,59.22
2023-02-11T04:41:46.475Z,64.00
2023-02-11T04:44:13.136Z,66.07
2023-02-11T04:46:39.644Z,60.50
2023-02-11T04:49:06.221Z,63.25
2023-02-11T04:51:33.008Z,69.38
2023-02-11T04:53:59.554Z,62.88
2023-02-11T04:56:26.051Z,65.45
2023-02-11T04:58:52.566Z,64.43
2023-02-11T05:01:19.189Z,66.70
2023-02-11T05:03:45.847Z,65.00
2023-02-11T05:06:12.674Z,70.80
2023-02-11T05:08:39.207Z,67.50
2023-02-11T05:11:06.125Z,67.25
2023-02-11T05:13:32.749Z,67.63
2023-02-11T05:15:59.712Z,72.93
2023-02-11T05:18:26.257Z,68.38
2023-02-11T05:20:52.789Z,66.85
2023-02-11T05:23:19.341Z,70.32
2023-02-11T05:25:45.842Z,68.10
2023-02-11T05:28:12.945Z,63.50
2023-02-11T05:30:39.772Z,68.28
2023-02-11T05:33:06.608Z,66.32
2023-02-11T05:35:34.118Z,69.43
2023-02-11T05:38:00.705Z,68.32
2023-02-11T05:40:27.335Z,70.50
2023-02-11T05:42:53.881Z,62.33
2023-02-11T05:45:20.511Z,64.20
2023-02-11T05:47:47.086Z,63.55
2023-02-11T05:50:13.585Z,70.43
2023-02-11T05:52:40.216Z,61.80
2023-02-11T05:55:07.050Z,63.47
2023-02-11T05:57:33.719Z,60.63
2023-02-11T06:00:00.207Z,67.25
2023-02-11T06:02:26.773Z,63.58
2023-02-11T06:04:53.262Z,66.85
2023-02-11T06:07:19.898Z,65.22
2023-02-11T06:09:46.450Z,61.50
2023-02-11T06:12:13.201Z,64.43
2023-02-11T06:14:39.783Z,65.18
2023-02-11T06:17:06.475Z,61.95
2023-02-11T06:19:33.151Z,62.35
2023-02-11T06:21:59.842Z,67.45
2023-02-11T06:24:48.056Z,63.83
2023-02-11T06:27:12.943Z,65.18
2023-02-11T06:29:39.642Z,66.10
2023-02-11T06:32:06.429Z,60.30
2023-02-11T06:34:33.020Z,66.57
2023-02-11T06:36:59.647Z,62.08
2023-02-11T06:39:26.217Z,66.38
2023-02-11T06:41:53.053Z,63.17
2023-02-11T06:44:19.546Z,62.95
2023-02-11T06:46:46.193Z,64.03
2023-02-11T06:49:13.376Z,62.85
2023-02-11T06:51:40.035Z,60.90
2023-02-11T06:54:07.074Z,61.05
2023-02-11T06:56:34.027Z,64.60
2023-02-11T06:59:01.062Z,66.82
2023-02-11T07:01:28.268Z,63.40
2023-02-11T07:03:55.139Z,59.65
2023-02-11T07:06:24.830Z,57.95
2023-02-11T07:08:51.469Z,59.75
2023-02-11T07:11:26.538Z,58.15
2023-02-11T07:13:56.052Z,60.78
2023-02-11T07:16:23.198Z,60.03
2023-02-11T07:18:50.017Z,56.92
2023-02-11T07:21:20.173Z,59.15
2023-02-11T07:23:48.315Z,58.33
2023-02-11T07:26:18.051Z,57.90
2023-02-11T07:28:45.530Z,56.23
2023-02-11T07:31:20.818Z,59.47
2023-02-11T07:33:47.526Z,59.63
2023-02-11T07:36:18.104Z,58.40
2023-02-11T07:38:45.028Z,58.33
2023-02-11T07:41:17.699Z,56.95
2023-02-11T07:43:44.642Z,60.92
2023-02-11T07:46:16.916Z,60.83
2023-02-11T07:48:43.688Z,57.80
2023-02-11T07:51:15.908Z,56.50
2023-02-11T07:53:42.671Z,53.53
2023-02-11T07:56:10.529Z,58.45
2023-02-11T07:58:37.705Z,59.05
2023-02-11T08:01:06.396Z,55.75
2023-02-11T08:03:34.670Z,52.85
2023-02-11T08:06:06.553Z,56.88
2023-02-11T08:08:33.237Z,50.42
2023-02-11T08:11:06.265Z,54.83
2023-02-11T08:13:33.562Z,52.90
2023-02-11T08:16:00.197Z,57.88
2023-02-11T08:18:26.865Z,53.90
2023-02-11T08:20:53.716Z,53.45
2023-02-11T08:23:20.446Z,61.80
2023-02-11T08:25:47.081Z,58.95
2023-02-11T08:28:13.819Z,58.15
2023-02-11T08:30:40.486Z,51.95
2023-02-11T08:33:07.017Z,55.28
2023-02-11T08:35:35.600Z,54.53
2023-02-11T08:38:02.238Z,56.85
2023-02-11T08:40:28.858Z,53.17
2023-02-11T08:42:55.517Z,57.78
2023-02-11T08:45:22.122Z,51.70
2023-02-11T08:47:48.686Z,52.92
2023-02-11T08:50:15.349Z,54.00
2023-02-11T08:52:41.925Z,47.92
2023-02-11T08:55:08.656Z,51.20
2023-02-11T08:57:35.218Z,51.33
2023-02-11T09:00:01.820Z,52.00
2023-02-11T09:02:28.448Z,51.75
2023-02-11T09:04:55.036Z,53.78
2023-02-11T09:07:21.629Z,55.97
2023-02-11T09:09:48.164Z,53.97
2023-02-11T09:12:14.794Z,52.95
2023-02-11T09:14:42.001Z,57.85
2023-02-11T09:17:08.526Z,52.53
2023-02-11T09:19:35.354Z,50.60
2023-02-11T09:22:02.071Z,52.78
2023-02-11T09:24:28.613Z,47.70
2023-02-11T09:26:55.164Z,55.33
2023-02-11T09:29:21.695Z,52.90
2023-02-11T09:31:48.475Z,48.00
2023-02-11T09:34:15.982Z,52.47
2023-02-11T09:36:42.508Z,53.42
2023-02-11T09:39:13.074Z,51.83
2023-02-11T09:41:42.982Z,54.28
2023-02-11T09:44:23.219Z,52.53
2023-02-11T09:46:56.603Z,56.00
2023-02-11T09:49:31.356Z,52.70
2023-02-11T09:52:05.249Z,52.55
2023-02-11T09:54:50.797Z,56.42
2023-02-11T09:57:28.158Z,54.60
2023-02-11T09:59:56.671Z,50.75
2023-02-11T10:02:38.040Z,53.85
2023-02-11T10:05:21.776Z,52.22
2023-02-11T10:07:59.779Z,55.13
2023-02-11T10:10:46.696Z,50.53
2023-02-11T10:13:42.569Z,49.97
2023-02-11T10:16:18.036Z,50.80
2023-02-11T10:19:11.337Z,55.60
2023-02-11T10:21:46.681Z,48.90
2023-02-11T10:24:16.251Z,57.72
2023-02-11T10:26:43.914Z,48.92
2023-02-11T10:29:35.643Z,48.50
2023-02-11T10:32:07.449Z,51.78
2023-02-11T10:34:34.673Z,49.70
2023-02-11T10:37:01.530Z,51.75
2023-02-11T10:39:28.205Z,53.83
2023-02-11T10:42:00.147Z,49.70
2023-02-11T10:44:33.488Z,50.63
2023-02-11T10:47:09.151Z,55.60
2023-02-11T10:49:39.144Z,51.90
2023-02-11T10:52:17.966Z,57.10
2023-02-11T10:54:57.039Z,54.90
2023-02-11T10:57:28.435Z,56.25
2023-02-11T11:00:02.133Z,51.08
2023-02-11T11:02:34.370Z,50.95
2023-02-11T11:05:14.581Z,54.42
2023-02-11T11:07:53.615Z,67.32
2023-02-11T11:10:36.092Z,82.45
2023-02-11T11:13:03.172Z,59.97
2023-02-11T11:15:32.065Z,52.42
2023-02-11T11:18:21.992Z,85.45
2023-02-11T11:21:00.222Z,82.45
2023-02-11T11:23:29.840Z,53.63
2023-02-11T11:26:13.272Z,55.42
2023-02-11T11:28:59.526Z,47.20
2023-02-11T11:31:34.658Z,52.10
2023-02-11T11:34:17.233Z,51.35
2023-02-11T11:36:44.355Z,55.90
2023-02-11T11:39:24.070Z,54.33
2023-02-11T11:42:03.283Z,50.22
2023-02-11T11:44:34.608Z,52.42
2023-02-11T11:47:16.469Z,49.70
2023-02-11T11:49:49.985Z,50.90
2023-02-11T11:52:22.728Z,53.90
2023-02-11T11:55:04.774Z,52.58
2023-02-11T11:57:34.909Z,55.20
2023-02-11T12:00:01.445Z,51.67
2023-02-11T12:02:52.630Z,49.53
2023-02-11T12:05:27.158Z,58.38
2023-02-11T12:08:11.907Z,49.92
2023-02-11T12:10:50.833Z,50.35
2023-02-11T12:13:39.468Z,48.38
2023-02-11T12:16:36.160Z,46.67
2023-02-11T12:19:28.003Z,50.20
2023-02-11T12:22:39.589Z,49.42
2023-02-11T12:25:17.904Z,48.92
2023-02-11T12:28:01.567Z,46.35
2023-02-11T12:31:13.092Z,51.00
2023-02-11T12:34:13.897Z,42.72
2023-02-11T12:36:54.451Z,45.92
2023-02-11T12:39:57.851Z,53.10
2023-02-11T12:42:49.035Z,51.53
2023-02-11T12:45:27.517Z,47.38
2023-02-11T12:48:33.039Z,47.53
2023-02-11T12:51:15.542Z,49.42
2023-02-11T12:53:51.218Z,42.92
2023-02-11T12:56:24.067Z,42.85
2023-02-11T12:58:54.229Z,41.38
2023-02-11T13:01:29.125Z,42.28
2023-02-11T13:04:09.310Z,43.50
2023-02-11T13:06:41.840Z,42.85
2023-02-11T13:09:21.091Z,43.55
2023-02-11T13:11:54.192Z,42.58
2023-02-11T13:14:32.634Z,46.42
2023-02-11T13:16:59.669Z,42.47
2023-02-11T13:19:29.127Z,37.78
2023-02-11T13:22:20.063Z,41.40
2023-02-11T13:25:06.174Z,41.85
2023-02-11T13:27:44.423Z,41.53
2023-02-11T13:30:21.674Z,40.72
2023-02-11T13:32:56.192Z,41.83
2023-02-11T13:35:31.816Z,48.38
2023-02-11T13:38:01.584Z,44.55
2023-02-11T13:40:33.264Z,40.60
2023-02-11T13:43:03.132Z,42.97
2023-02-11T13:45:42.023Z,42.67
2023-02-11T13:48:24.061Z,41.92
2023-02-11T13:50:54.368Z,46.15
2023-02-11T13:53:22.203Z,40.05
2023-02-11T13:55:52.742Z,43.20
2023-02-11T13:58:37.182Z,44.47
2023-02-11T14:01:04.057Z,37.28
2023-02-11T14:03:57.488Z,37.90
2023-02-11T14:06:45.419Z,38.58
2023-02-11T14:09:14.597Z,34.42
2023-02-11T14:11:41.694Z,37.20
2023-02-11T14:14:17.174Z,40.72
2023-02-11T14:17:20.255Z,36.80
2023-02-11T14:19:49.384Z,33.90
2023-02-11T14:22:26.067Z,34.47
2023-02-11T14:24:59.526Z,33.00
2023-02-11T14:27:48.990Z,34.53
2023-02-11T14:30:56.693Z,34.65
2023-02-11T14:33:42.657Z,36.10
2023-02-11T14:36:33.738Z,40.13
2023-02-11T14:39:17.467Z,35.75
2023-02-11T14:41:48.851Z,35.25
2023-02-11T14:44:21.389Z,35.88
2023-02-11T14:46:53.085Z,34.20
2023-02-11T14:49:38.058Z,35.22
2023-02-11T14:52:17.163Z,34.85
2023-02-11T14:54:46.012Z,40.10
2023-02-11T14:57:17.384Z,33.78
2023-02-11T15:00:04.307Z,36.05
2023-02-11T15:02:36.987Z,34.58
2023-02-11T15:05:26.190Z,33.78
2023-02-11T15:07:59.265Z,37.03
2023-02-11T15:10:31.710Z,35.55
2023-02-11T15:13:01.079Z,33.78
2023-02-11T15:15:29.224Z,32.72
2023-02-11T15:17:59.582Z,36.35
2023-02-11T15:20:29.751Z,32.75
2023-02-11T15:23:00.028Z,29.90
2023-02-11T15:25:28.041Z,32.95
2023-02-11T15:27:58.141Z,29.70
2023-02-11T15:30:34.195Z,28.92
2023-02-11T15:33:03.699Z,28.70
2023-02-11T15:35:32.569Z,26.45
2023-02-11T15:38:00.081Z,31.58
2023-02-11T15:40:33.047Z,36.05
2023-02-11T15:43:02.733Z,29.52
2023-02-11T15:45:35.837Z,27.40
2023-02-11T15:48:10.792Z,28.73
2023-02-11T15:50:40.767Z,29.50
2023-02-11T15:53:25.523Z,30.80
2023-02-11T15:55:57.322Z,30.88
2023-02-11T15:58:24.365Z,27.95
2023-02-11T16:00:56.637Z,28.25
2023-02-11T16:03:27.812Z,27.55
2023-02-11T16:05:56.555Z,26.98
2023-02-11T16:08:32.884Z,25.65
2023-02-11T16:11:09.437Z,24.50
2023-02-11T16:13:47.162Z,26.42
2023-02-11T16:16:26.148Z,24.27
2023-02-11T16:19:06.170Z,27.75
2023-02-11T16:21:39.290Z,28.83
2023-02-11T16:24:08.012Z,26.27
2023-02-11T16:26:43.220Z,29.50
2023-02-11T16:29:09.787Z,30.98
2023-02-11T16:31:39.245Z,29.55
2023-02-11T16:34:13.273Z,27.38
2023-02-11T16:36:39.881Z,29.98
2023-02-11T16:39:06.467Z,27.25
2023-02-11T16:41:33.142Z,28.48
2023-02-11T16:43:59.805Z,26.65
2023-02-11T16:46:27.560Z,25.33
2023-02-11T16:48:56.390Z,29.13
2023-02-11T16:51:23.109Z,26.70
2023-02-11T16:53:49.612Z,29.35
2023-02-11T16:56:17.763Z,30.45
2023-02-11T16:58:45.460Z,31.20
2023-02-11T17:01:14.051Z,27.13
2023-02-11T17:03:40.920Z,29.95
2023-02-11T17:06:10.393Z,30.25
2023-02-11T17:08:37.164Z,30.70
2023-02-11T17:11:04.460Z,33.47
2023-02-11T17:13:31.088Z,28.10
2023-02-11T17:15:57.973Z,32.15
2023-02-11T17:18:24.525Z,28.67
2023-02-11T17:20:51.168Z,35.15
2023-02-11T17:23:17.760Z,32.13
2023-02-11T17:25:44.405Z,33.78
2023-02-11T17:28:13.756Z,33.38
2023-02-11T17:30:42.603Z,32.13
2023-02-11T17:33:09.581Z,30.42
2023-02-11T17:35:39.533Z,34.67
2023-02-11T17:38:06.184Z,36.78
2023-02-11T17:40:32.837Z,33.28
2023-02-11T17:42:59.353Z,32.15
2023-02-11T17:45:25.955Z,33.60
2023-02-11T17:47:52.763Z,34.08
2023-02-11T17:50:19.286Z,44.47
2023-02-11T17:52:45.862Z,36.95
2023-02-11T17:55:12.538Z,37.35
2023-02-11T17:57:39.159Z,33.25
2023-02-11T18:00:07.821Z,37.40
2023-02-11T18:02:34.713Z,35.42
2023-02-11T18:05:01.488Z,38.47
2023-02-11T18:07:28.660Z,42.10
2023-02-11T18:09:55.263Z,40.00
2023-02-11T18:12:25.691Z,36.55
2023-02-11T18:14:57.528Z,41.88
2023-02-11T18:17:25.376Z,38.38
2023-02-11T18:19:56.145Z,39.13
2023-02-11T18:22:24.592Z,40.20
2023-02-11T18:24:52.408Z,39.55
2023-02-11T18:27:19.224Z,40.05
2023-02-11T18:29:45.930Z,37.00
2023-02-11T18:32:13.534Z,38.05
2023-02-11T18:34:42.111Z,39.95
2023-02-11T18:37:08.925Z,39.30
2023-02-11T18:39:36.024Z,43.70
2023-02-11T18:42:02.640Z,42.70
2023-02-11T18:44:29.267Z,36.92
2023-02-11T18:46:55.917Z,37.15
2023-02-11T18:49:22.535Z,38.85
2023-02-11T18:51:49.199Z,37.97
2023-02-11T18:54:15.702Z,50.17
2023-02-11T18:56:42.240Z,40.80
2023-02-11T18:59:08.844Z,41.47
2023-02-11T19:01:35.593Z,46.92
2023-02-11T19:04:04.469Z,46.97
2023-02-11T19:06:36.069Z,47.67
2023-02-11T19:09:09.922Z,45.63
2023-02-11T19:11:49.106Z,41.22
2023-02-11T19:14:22.067Z,41.08
2023-02-11T19:16:56.752Z,38.33
2023-02-11T19:19:24.927Z,37.47
2023-02-11T19:21:51.545Z,39.70
2023-02-11T19:24:20.229Z,36.83
2023-02-11T19:26:48.517Z,39.63
2023-02-11T19:29:15.571Z,38.78
2023-02-11T19:31:43.484Z,41.47
2023-02-11T19:34:12.090Z,40.30
2023-02-11T19:36:38.845Z,42.80
2023-02-11T19:39:06.259Z,40.83
2023-02-11T19:41:33.718Z,40.20
2023-02-11T19:44:01.271Z,39.22
2023-02-11T19:46:31.585Z,42.35
2023-02-11T19:48:59.804Z,44.30
2023-02-11T19:51:26.915Z,43.72
2023-02-11T19:53:55.812Z,39.15
2023-02-11T19:56:23.184Z,44.35
2023-02-11T19:58:49.893Z,41.80
2023-02-11T20:01:20.219Z,39.95
2023-02-11T20:03:51.050Z,40.72
2023-02-11T20:06:23.468Z,39.78
2023-02-11T20:08:58.987Z,36.80
2023-02-11T20:11:28.181Z,38.92
2023-02-11T20:13:55.091Z,39.28
2023-02-11T20:16:27.073Z,36.40
2023-02-11T20:19:00.886Z,36.85
2023-02-11T20:21:30.276Z,35.38
2023-02-11T20:23:57.387Z,39.80
2023-02-11T20:26:25.809Z,36.90
2023-02-11T20:28:53.881Z,40.53
2023-02-11T20:31:21.748Z,42.50
2023-02-11T20:33:48.656Z,39.80
2023-02-11T20:36:21.262Z,38.20
2023-02-11T20:38:48.960Z,36.20
2023-02-11T20:41:18.664Z,39.50
2023-02-11T20:43:47.576Z,39.47
2023-02-11T20:46:19.575Z,40.35
2023-02-11T20:48:46.179Z,38.20
2023-02-11T20:51:19.168Z,40.05
2023-02-11T20:53:48.911Z,40.28
2023-02-11T20:56:16.957Z,40.87
2023-02-11T20:58:43.481Z,42.75
2023-02-11T21:01:25.355Z,44.00
2023-02-11T21:03:57.286Z,42.97
2023-02-11T21:06:25.820Z,41.83
2023-02-11T21:08:53.642Z,39.55
2023-02-11T21:11:20.848Z,41.85
2023-02-11T21:13:48.684Z,40.75
2023-02-11T21:16:17.599Z,40.22
2023-02-11T21:18:44.192Z,43.85
2023-02-11T21:21:10.734Z,43.35
2023-02-11T21:23:39.572Z,41.30
2023-02-11T21:26:09.871Z,42.45
2023-02-11T21:28:39.818Z,40.88
2023-02-11T21:31:07.993Z,42.90
2023-02-11T21:33:34.742Z,41.45
2023-02-11T21:36:03.961Z,40.75
2023-02-11T21:38:31.139Z,40.63
2023-02-11T21:41:04.217Z,39.33
2023-02-11T21:43:31.215Z,41.78
2023-02-11T21:45:57.946Z,45.58
2023-02-11T21:48:25.799Z,42.90
2023-02-11T21:50:54.173Z,44.83
2023-02-11T21:53:20.776Z,42.55
2023-02-11T21:55:47.320Z,41.03
2023-02-11T21:58:14.415Z,45.65
2023-02-11T22:00:41.036Z,42.92
2023-02-11T22:03:07.684Z,41.92
2023-02-11T22:05:34.568Z,41.38
2023-02-11T22:08:01.077Z,45.30
2023-02-11T22:10:27.651Z,44.85
2023-02-11T22:12:54.199Z,48.72
2023-02-11T22:15:20.744Z,48.63
2023-02-11T22:17:47.252Z,50.47
2023-02-11T22:20:16.423Z,50.60
2023-02-11T22:22:43.038Z,46.88
2023-02-11T22:25:09.678Z,45.38
2023-02-11T22:27:38.259Z,46.95
2023-02-11T22:30:05.634Z,48.17
2023-02-11T22:32:32.118Z,48.55
2023-02-11T22:34:58.808Z,45.80
2023-02-11T22:37:25.379Z,53.45
2023-02-11T22:39:52.300Z,50.00
2023-02-11T22:42:18.936Z,46.60
2023-02-11T22:44:45.653Z,49.00
2023-02-11T22:47:12.327Z,45.15
2023-02-11T22:49:40.801Z,48.88
2023-02-11T22:52:07.656Z,44.42
2023-02-11T22:54:36.604Z,46.17
2023-02-11T22:57:03.338Z,48.80
2023-02-11T22:59:31.314Z,45.65
2023-02-11T23:01:58.084Z,45.25
2023-02-11T23:04:24.720Z,43.03
2023-02-11T23:06:51.316Z,42.38
2023-02-11T23:09:18.006Z,42.03
2023-02-11T23:11:44.666Z,48.67
2023-02-11T23:14:12.262Z,49.03
2023-02-11T23:16:39.565Z,49.35
2023-02-11T23:19:08.749Z,46.17
2023-02-11T23:21:37.646Z,43.25
2023-02-11T23:24:11.112Z,43.70
2023-02-11T23:26:39.437Z,45.97
2023-02-11T23:29:07.088Z,49.65
2023-02-11T23:31:40.321Z,41.95
2023-02-11T23:34:08.186Z,41.55
2023-02-11T23:36:34.863Z,43.83
2023-02-11T23:39:01.769Z,47.10
2023-02-11T23:41:28.334Z,46.80
2023-02-11T23:43:57.094Z,46.95
2023-02-11T23:46:25.632Z,46.13
2023-02-11T23:48:52.614Z,45.20
2023-02-11T23:51:19.871Z,45.55
2023-02-11T23:53:49.086Z,47.00
2023-02-11T23:56:19.407Z,48.50
2023-02-11T23:58:49.348Z,52.10
